sensor_id;sensor_type;location;lat;lon;timestamp;pressure;altitude;pressure_sealevel;temperature;humidity
53340;BME280;46212;50.258;19.062;2022-08-21T00:00:14;98073.31;;;19.48;100.00
53340;BME280;46212;50.258;19.062;2022-08-21T00:02:53;98068.59;;;19.37;100.00
53340;BME280;46212;50.258;19.062;2022-08-21T00:05:19;98061.19;;;19.40;100.00
53340;BME280;46212;50.258;19.062;2022-08-21T00:07:45;98058.13;;;19.38;100.00
53340;BME280;46212;50.258;19.062;2022-08-21T00:10:11;98069.59;;;19.40;100.00
53340;BME280;46212;50.258;19.062;2022-08-21T00:12:37;98062.94;;;19.43;100.00
53340;BME280;46212;50.258;19.062;2022-08-21T00:15:03;98063.47;;;19.41;100.00
53340;BME280;46212;50.258;19.062;2022-08-21T00:17:28;98060.28;;;19.50;100.00
53340;BME280;46212;50.258;19.062;2022-08-21T00:19:54;98066.50;;;19.62;100.00
53340;BME280;46212;50.258;19.062;2022-08-21T00:22:19;98068.09;;;19.57;100.00
53340;BME280;46212;50.258;19.062;2022-08-21T00:24:44;98066.81;;;19.58;100.00
53340;BME280;46212;50.258;19.062;2022-08-21T00:27:09;98060.44;;;19.58;100.00
53340;BME280;46212;50.258;19.062;2022-08-21T00:29:35;98053.63;;;19.53;100.00
53340;BME280;46212;50.258;19.062;2022-08-21T00:32:00;98050.88;;;19.67;100.00
53340;BME280;46212;50.258;19.062;2022-08-21T00:34:25;98046.44;;;19.58;100.00
53340;BME280;46212;50.258;19.062;2022-08-21T00:36:51;98051.34;;;19.52;100.00
53340;BME280;46212;50.258;19.062;2022-08-21T00:39:16;98041.13;;;19.54;100.00
53340;BME280;46212;50.258;19.062;2022-08-21T00:41:41;98044.41;;;19.58;100.00
53340;BME280;46212;50.258;19.062;2022-08-21T00:44:09;98048.63;;;19.65;100.00
53340;BME280;46212;50.258;19.062;2022-08-21T00:46:35;98033.25;;;19.72;100.00
53340;BME280;46212;50.258;19.062;2022-08-21T00:49:00;98033.78;;;19.51;100.00
53340;BME280;46212;50.258;19.062;2022-08-21T00:51:28;98030.19;;;19.56;100.00
53340;BME280;46212;50.258;19.062;2022-08-21T00:53:57;98029.84;;;19.60;100.00
53340;BME280;46212;50.258;19.062;2022-08-21T00:56:24;98026.31;;;19.59;100.00
53340;BME280;46212;50.258;19.062;2022-08-21T00:58:50;98024.25;;;19.60;100.00
53340;BME280;46212;50.258;19.062;2022-08-21T01:01:16;98022.81;;;19.53;100.00
53340;BME280;46212;50.258;19.062;2022-08-21T01:03:42;98010.56;;;19.56;100.00
53340;BME280;46212;50.258;19.062;2022-08-21T01:06:07;98007.44;;;19.60;100.00
53340;BME280;46212;50.258;19.062;2022-08-21T01:08:33;98007.09;;;19.82;100.00
53340;BME280;46212;50.258;19.062;2022-08-21T01:10:59;97996.97;;;19.79;100.00
53340;BME280;46212;50.258;19.062;2022-08-21T01:13:26;97994.06;;;20.17;100.00
53340;BME280;46212;50.258;19.062;2022-08-21T01:15:53;97991.53;;;20.32;100.00
53340;BME280;46212;50.258;19.062;2022-08-21T01:18:19;97988.50;;;20.30;100.00
53340;BME280;46212;50.258;19.062;2022-08-21T01:23:29;97987.25;;;20.44;99.68
53340;BME280;46212;50.258;19.062;2022-08-21T01:25:54;97988.00;;;20.44;99.72
53340;BME280;46212;50.258;19.062;2022-08-21T01:28:19;97981.50;;;20.36;99.88
53340;BME280;46212;50.258;19.062;2022-08-21T01:30:46;97984.50;;;20.25;100.00
53340;BME280;46212;50.258;19.062;2022-08-21T01:33:11;97987.78;;;20.29;100.00
53340;BME280;46212;50.258;19.062;2022-08-21T01:35:37;97973.84;;;20.37;100.00
53340;BME280;46212;50.258;19.062;2022-08-21T01:38:02;97967.28;;;20.34;100.00
53340;BME280;46212;50.258;19.062;2022-08-21T01:40:27;97973.97;;;20.44;99.78
53340;BME280;46212;50.258;19.062;2022-08-21T01:42:53;97970.72;;;20.40;99.60
53340;BME280;46212;50.258;19.062;2022-08-21T01:45:18;97966.84;;;20.43;99.98
53340;BME280;46212;50.258;19.062;2022-08-21T01:47:44;97958.00;;;20.39;100.00
53340;BME280;46212;50.258;19.062;2022-08-21T01:50:13;97956.59;;;20.46;99.92
53340;BME280;46212;50.258;19.062;2022-08-21T01:52:39;97948.28;;;20.40;100.00
53340;BME280;46212;50.258;19.062;2022-08-21T01:55:06;97952.63;;;20.54;99.28
53340;BME280;46212;50.258;19.062;2022-08-21T01:57:31;97939.13;;;20.53;99.24
53340;BME280;46212;50.258;19.062;2022-08-21T01:59:57;97925.66;;;20.51;99.09
53340;BME280;46212;50.258;19.062;2022-08-21T02:02:23;97922.94;;;20.46;99.13
53340;BME280;46212;50.258;19.062;2022-08-21T02:04:48;97926.06;;;20.29;100.00
53340;BME280;46212;50.258;19.062;2022-08-21T02:07:13;97924.09;;;20.24;100.00
53340;BME280;46212;50.258;19.062;2022-08-21T02:09:39;97923.47;;;20.31;100.00
53340;BME280;46212;50.258;19.062;2022-08-21T02:12:07;97921.25;;;20.11;100.00
53340;BME280;46212;50.258;19.062;2022-08-21T02:14:32;97924.31;;;20.13;100.00
53340;BME280;46212;50.258;19.062;2022-08-21T02:16:57;97919.47;;;20.13;100.00
53340;BME280;46212;50.258;19.062;2022-08-21T02:19:23;97930.31;;;20.17;100.00
53340;BME280;46212;50.258;19.062;2022-08-21T02:21:48;97921.28;;;20.24;100.00
53340;BME280;46212;50.258;19.062;2022-08-21T02:24:13;97920.09;;;20.06;100.00
53340;BME280;46212;50.258;19.062;2022-08-21T02:26:38;97926.88;;;20.24;100.00
53340;BME280;46212;50.258;19.062;2022-08-21T02:29:04;97927.72;;;20.06;100.00
53340;BME280;46212;50.258;19.062;2022-08-21T02:31:29;97916.72;;;19.95;100.00
53340;BME280;46212;50.258;19.062;2022-08-21T02:33:56;97916.22;;;20.09;100.00
53340;BME280;46212;50.258;19.062;2022-08-21T02:36:21;97914.03;;;20.02;100.00
53340;BME280;46212;50.258;19.062;2022-08-21T02:38:46;97909.63;;;20.07;100.00
53340;BME280;46212;50.258;19.062;2022-08-21T02:41:13;97911.63;;;20.38;100.00
53340;BME280;46212;50.258;19.062;2022-08-21T02:43:38;97907.41;;;20.45;100.00
53340;BME280;46212;50.258;19.062;2022-08-21T02:46:04;97917.88;;;20.31;100.00
53340;BME280;46212;50.258;19.062;2022-08-21T02:48:31;97914.88;;;20.29;100.00
53340;BME280;46212;50.258;19.062;2022-08-21T02:53:22;97926.44;;;20.20;100.00
53340;BME280;46212;50.258;19.062;2022-08-21T02:55:48;97930.44;;;20.25;100.00
53340;BME280;46212;50.258;19.062;2022-08-21T02:58:15;97932.53;;;20.37;100.00
53340;BME280;46212;50.258;19.062;2022-08-21T03:00:41;97934.81;;;20.39;100.00
53340;BME280;46212;50.258;19.062;2022-08-21T03:03:07;97927.16;;;20.26;100.00
53340;BME280;46212;50.258;19.062;2022-08-21T03:05:33;97930.25;;;20.23;100.00
53340;BME280;46212;50.258;19.062;2022-08-21T03:07:59;97936.31;;;20.40;100.00
53340;BME280;46212;50.258;19.062;2022-08-21T03:10:25;97933.84;;;20.49;100.00
53340;BME280;46212;50.258;19.062;2022-08-21T03:12:51;97930.28;;;20.49;100.00
53340;BME280;46212;50.258;19.062;2022-08-21T03:15:17;97930.94;;;20.42;100.00
53340;BME280;46212;50.258;19.062;2022-08-21T03:17:44;97930.28;;;20.36;100.00
53340;BME280;46212;50.258;19.062;2022-08-21T03:20:10;97933.19;;;20.43;100.00
53340;BME280;46212;50.258;19.062;2022-08-21T03:22:35;97940.31;;;20.44;100.00
53340;BME280;46212;50.258;19.062;2022-08-21T03:25:01;97942.47;;;20.38;100.00
53340;BME280;46212;50.258;19.062;2022-08-21T03:27:27;97946.00;;;20.26;100.00
53340;BME280;46212;50.258;19.062;2022-08-21T03:29:53;97952.75;;;20.17;100.00
53340;BME280;46212;50.258;19.062;2022-08-21T03:32:18;97954.84;;;20.30;100.00
53340;BME280;46212;50.258;19.062;2022-08-21T03:34:44;97952.22;;;20.19;100.00
53340;BME280;46212;50.258;19.062;2022-08-21T03:37:09;97961.13;;;20.36;100.00
53340;BME280;46212;50.258;19.062;2022-08-21T03:39:35;97949.63;;;20.21;100.00
53340;BME280;46212;50.258;19.062;2022-08-21T03:42:01;97959.88;;;20.18;100.00
53340;BME280;46212;50.258;19.062;2022-08-21T03:44:26;97964.88;;;20.25;100.00
53340;BME280;46212;50.258;19.062;2022-08-21T03:46:55;97972.31;;;20.23;100.00
53340;BME280;46212;50.258;19.062;2022-08-21T03:49:21;97970.34;;;20.17;100.00
53340;BME280;46212;50.258;19.062;2022-08-21T03:51:46;97981.09;;;20.00;100.00
53340;BME280;46212;50.258;19.062;2022-08-21T03:54:12;97982.53;;;20.07;100.00
53340;BME280;46212;50.258;19.062;2022-08-21T03:56:37;97974.72;;;20.00;100.00
53340;BME280;46212;50.258;19.062;2022-08-21T03:59:04;97976.00;;;19.99;100.00
53340;BME280;46212;50.258;19.062;2022-08-21T04:01:29;97973.22;;;19.99;100.00
53340;BME280;46212;50.258;19.062;2022-08-21T04:03:54;97969.50;;;20.23;100.00
53340;BME280;46212;50.258;19.062;2022-08-21T04:06:20;97962.91;;;20.20;100.00
53340;BME280;46212;50.258;19.062;2022-08-21T04:08:45;97960.78;;;20.39;100.00
53340;BME280;46212;50.258;19.062;2022-08-21T04:11:10;97965.75;;;20.33;100.00
53340;BME280;46212;50.258;19.062;2022-08-21T04:13:36;97955.75;;;20.38;100.00
53340;BME280;46212;50.258;19.062;2022-08-21T04:16:01;97962.81;;;20.26;100.00
53340;BME280;46212;50.258;19.062;2022-08-21T04:18:27;97961.84;;;20.23;100.00
53340;BME280;46212;50.258;19.062;2022-08-21T04:20:52;97966.03;;;20.17;100.00
53340;BME280;46212;50.258;19.062;2022-08-21T04:23:19;97968.25;;;20.05;100.00
53340;BME280;46212;50.258;19.062;2022-08-21T04:25:44;97963.97;;;20.17;100.00
53340;BME280;46212;50.258;19.062;2022-08-21T04:28:10;97968.50;;;20.20;100.00
53340;BME280;46212;50.258;19.062;2022-08-21T04:30:35;97959.50;;;20.27;100.00
53340;BME280;46212;50.258;19.062;2022-08-21T04:33:00;97963.19;;;20.35;100.00
53340;BME280;46212;50.258;19.062;2022-08-21T04:35:26;97970.28;;;20.36;100.00
53340;BME280;46212;50.258;19.062;2022-08-21T04:37:52;97961.63;;;20.21;100.00
53340;BME280;46212;50.258;19.062;2022-08-21T04:40:18;97964.53;;;20.15;100.00
53340;BME280;46212;50.258;19.062;2022-08-21T04:45:21;97968.09;;;20.16;100.00
53340;BME280;46212;50.258;19.062;2022-08-21T04:47:54;97977.03;;;20.14;100.00
53340;BME280;46212;50.258;19.062;2022-08-21T04:50:20;97966.16;;;20.24;100.00
53340;BME280;46212;50.258;19.062;2022-08-21T04:52:47;97962.94;;;20.33;100.00
53340;BME280;46212;50.258;19.062;2022-08-21T04:55:13;97969.44;;;20.41;100.00
53340;BME280;46212;50.258;19.062;2022-08-21T04:57:39;97961.13;;;20.49;100.00
53340;BME280;46212;50.258;19.062;2022-08-21T05:00:05;97968.78;;;20.61;100.00
53340;BME280;46212;50.258;19.062;2022-08-21T05:02:31;97974.94;;;20.60;100.00
53340;BME280;46212;50.258;19.062;2022-08-21T05:04:58;97978.84;;;20.57;100.00
53340;BME280;46212;50.258;19.062;2022-08-21T05:07:25;97976.78;;;20.57;100.00
53340;BME280;46212;50.258;19.062;2022-08-21T05:09:51;97972.91;;;20.60;100.00
53340;BME280;46212;50.258;19.062;2022-08-21T05:12:17;97987.34;;;20.64;100.00
53340;BME280;46212;50.258;19.062;2022-08-21T05:14:42;97982.50;;;20.65;100.00
53340;BME280;46212;50.258;19.062;2022-08-21T05:17:08;97993.31;;;20.61;100.00
53340;BME280;46212;50.258;19.062;2022-08-21T05:19:33;97999.22;;;20.44;100.00
53340;BME280;46212;50.258;19.062;2022-08-21T05:21:59;98012.00;;;20.27;100.00
53340;BME280;46212;50.258;19.062;2022-08-21T05:24:25;98012.75;;;20.27;100.00
53340;BME280;46212;50.258;19.062;2022-08-21T05:26:51;98009.34;;;20.34;100.00
53340;BME280;46212;50.258;19.062;2022-08-21T05:29:16;98017.53;;;20.32;100.00
53340;BME280;46212;50.258;19.062;2022-08-21T05:31:42;98010.31;;;20.37;100.00
53340;BME280;46212;50.258;19.062;2022-08-21T05:34:07;98006.00;;;20.49;100.00
53340;BME280;46212;50.258;19.062;2022-08-21T05:36:33;98009.59;;;20.62;100.00
53340;BME280;46212;50.258;19.062;2022-08-21T05:38:58;98002.59;;;20.95;100.00
53340;BME280;46212;50.258;19.062;2022-08-21T05:41:23;98004.75;;;21.02;99.13
53340;BME280;46212;50.258;19.062;2022-08-21T05:43:48;98002.66;;;21.29;97.09
53340;BME280;46212;50.258;19.062;2022-08-21T05:46:14;98003.00;;;21.12;98.05
53340;BME280;46212;50.258;19.062;2022-08-21T05:48:39;98003.34;;;21.09;98.45
53340;BME280;46212;50.258;19.062;2022-08-21T05:51:05;98003.25;;;21.14;97.88
53340;BME280;46212;50.258;19.062;2022-08-21T05:53:31;98003.31;;;21.22;96.86
53340;BME280;46212;50.258;19.062;2022-08-21T05:55:56;98003.94;;;21.28;96.51
53340;BME280;46212;50.258;19.062;2022-08-21T05:58:21;98006.09;;;21.35;95.86
53340;BME280;46212;50.258;19.062;2022-08-21T06:00:48;98012.94;;;21.27;95.95
53340;BME280;46212;50.258;19.062;2022-08-21T06:03:21;98009.16;;;21.24;96.34
53340;BME280;46212;50.258;19.062;2022-08-21T06:05:46;98002.06;;;21.44;95.08
53340;BME280;46212;50.258;19.062;2022-08-21T06:08:11;98012.03;;;21.45;94.80
53340;BME280;46212;50.258;19.062;2022-08-21T06:10:37;98006.06;;;21.48;94.75
53340;BME280;46212;50.258;19.062;2022-08-21T06:13:02;98002.03;;;21.57;94.01
53340;BME280;46212;50.258;19.062;2022-08-21T06:15:28;98003.66;;;21.65;93.53
53340;BME280;46212;50.258;19.062;2022-08-21T06:17:53;98003.09;;;21.67;92.84
53340;BME280;46212;50.258;19.062;2022-08-21T06:20:18;98008.09;;;21.61;93.41
53340;BME280;46212;50.258;19.062;2022-08-21T06:22:44;98016.19;;;21.64;93.30
53340;BME280;46212;50.258;19.062;2022-08-21T06:25:09;98016.84;;;21.57;93.80
53340;BME280;46212;50.258;19.062;2022-08-21T06:27:35;98012.91;;;21.40;94.92
53340;BME280;46212;50.258;19.062;2022-08-21T06:30:00;98019.03;;;21.51;94.03
53340;BME280;46212;50.258;19.062;2022-08-21T06:32:25;98015.75;;;21.60;92.72
53340;BME280;46212;50.258;19.062;2022-08-21T06:34:50;98016.31;;;21.59;92.61
53340;BME280;46212;50.258;19.062;2022-08-21T06:37:16;98023.56;;;21.54;93.61
53340;BME280;46212;50.258;19.062;2022-08-21T06:39:41;98019.31;;;21.61;93.00
53340;BME280;46212;50.258;19.062;2022-08-21T06:42:06;98024.56;;;21.78;91.83
53340;BME280;46212;50.258;19.062;2022-08-21T06:44:37;98026.34;;;21.67;92.54
53340;BME280;46212;50.258;19.062;2022-08-21T06:47:02;98012.28;;;21.67;92.29
53340;BME280;46212;50.258;19.062;2022-08-21T06:49:28;98025.06;;;21.55;92.62
53340;BME280;46212;50.258;19.062;2022-08-21T06:51:53;98040.78;;;20.72;95.99
53340;BME280;46212;50.258;19.062;2022-08-21T06:54:18;98045.22;;;20.23;98.25
53340;BME280;46212;50.258;19.062;2022-08-21T06:56:44;98048.06;;;20.49;95.31
53340;BME280;46212;50.258;19.062;2022-08-21T06:59:09;98049.88;;;20.33;94.62
53340;BME280;46212;50.258;19.062;2022-08-21T07:01:34;98045.94;;;20.42;93.41
53340;BME280;46212;50.258;19.062;2022-08-21T07:03:59;98054.91;;;20.53;91.59
53340;BME280;46212;50.258;19.062;2022-08-21T07:06:26;98061.59;;;20.50;89.80
53340;BME280;46212;50.258;19.062;2022-08-21T07:08:51;98056.25;;;20.34;89.12
53340;BME280;46212;50.258;19.062;2022-08-21T07:11:21;98059.91;;;20.29;89.07
53340;BME280;46212;50.258;19.062;2022-08-21T07:13:47;98057.88;;;20.29;89.00
53340;BME280;46212;50.258;19.062;2022-08-21T07:16:13;98061.75;;;20.26;87.88
53340;BME280;46212;50.258;19.062;2022-08-21T07:18:39;98067.47;;;20.34;86.86
53340;BME280;46212;50.258;19.062;2022-08-21T07:21:05;98071.06;;;20.15;87.37
53340;BME280;46212;50.258;19.062;2022-08-21T07:23:31;98064.94;;;19.98;87.82
53340;BME280;46212;50.258;19.062;2022-08-21T07:25:57;98063.72;;;20.12;86.92
53340;BME280;46212;50.258;19.062;2022-08-21T07:28:24;98074.09;;;20.49;85.69
53340;BME280;46212;50.258;19.062;2022-08-21T07:30:50;98073.28;;;20.67;82.79
53340;BME280;46212;50.258;19.062;2022-08-21T07:33:16;98069.41;;;20.71;81.66
53340;BME280;46212;50.258;19.062;2022-08-21T07:35:41;98061.84;;;20.92;79.14
53340;BME280;46212;50.258;19.062;2022-08-21T07:38:07;98065.09;;;21.22;77.86
53340;BME280;46212;50.258;19.062;2022-08-21T07:40:32;98066.63;;;21.23;77.11
53340;BME280;46212;50.258;19.062;2022-08-21T07:42:58;98066.63;;;21.23;76.22
53340;BME280;46212;50.258;19.062;2022-08-21T07:45:23;98067.72;;;21.20;76.71
53340;BME280;46212;50.258;19.062;2022-08-21T07:47:49;98074.84;;;21.21;76.46
53340;BME280;46212;50.258;19.062;2022-08-21T07:50:14;98065.84;;;21.36;76.09
53340;BME280;46212;50.258;19.062;2022-08-21T07:52:40;98061.84;;;21.44;76.15
53340;BME280;46212;50.258;19.062;2022-08-21T07:55:06;98057.06;;;21.65;74.48
53340;BME280;46212;50.258;19.062;2022-08-21T07:57:32;98067.38;;;21.84;74.58
53340;BME280;46212;50.258;19.062;2022-08-21T07:59:58;98061.16;;;21.98;73.89
53340;BME280;46212;50.258;19.062;2022-08-21T08:02:24;98059.59;;;22.10;73.57
53340;BME280;46212;50.258;19.062;2022-08-21T08:04:50;98059.00;;;22.25;72.79
53340;BME280;46212;50.258;19.062;2022-08-21T08:07:16;98060.16;;;22.30;72.69
53340;BME280;46212;50.258;19.062;2022-08-21T08:09:41;98058.66;;;22.49;73.17
53340;BME280;46212;50.258;19.062;2022-08-21T08:12:07;98049.78;;;22.45;71.80
53340;BME280;46212;50.258;19.062;2022-08-21T08:14:32;98060.56;;;22.75;71.40
53340;BME280;46212;50.258;19.062;2022-08-21T08:16:58;98059.25;;;23.04;69.92
53340;BME280;46212;50.258;19.062;2022-08-21T08:19:23;98050.97;;;22.99;69.22
53340;BME280;46212;50.258;19.062;2022-08-21T08:21:48;98046.88;;;23.07;69.23
53340;BME280;46212;50.258;19.062;2022-08-21T08:24:14;98048.66;;;22.90;69.65
53340;BME280;46212;50.258;19.062;2022-08-21T08:26:39;98047.47;;;23.13;68.42
53340;BME280;46212;50.258;19.062;2022-08-21T08:29:04;98042.13;;;23.31;68.17
53340;BME280;46212;50.258;19.062;2022-08-21T08:31:30;98050.41;;;23.36;67.40
53340;BME280;46212;50.258;19.062;2022-08-21T08:33:55;98049.09;;;23.37;67.03
53340;BME280;46212;50.258;19.062;2022-08-21T08:36:20;98044.34;;;23.60;65.69
53340;BME280;46212;50.258;19.062;2022-08-21T08:38:56;98047.59;;;23.72;66.01
53340;BME280;46212;50.258;19.062;2022-08-21T08:41:21;98049.28;;;23.75;65.55
53340;BME280;46212;50.258;19.062;2022-08-21T08:43:49;98052.31;;;23.85;65.58
53340;BME280;46212;50.258;19.062;2022-08-21T08:46:15;98047.44;;;23.93;65.31
53340;BME280;46212;50.258;19.062;2022-08-21T08:51:47;98050.59;;;23.81;64.96
53340;BME280;46212;50.258;19.062;2022-08-21T08:54:17;98047.25;;;23.91;64.20
53340;BME280;46212;50.258;19.062;2022-08-21T08:56:44;98030.56;;;24.00;64.33
53340;BME280;46212;50.258;19.062;2022-08-21T08:59:19;98030.16;;;23.96;63.76
53340;BME280;46212;50.258;19.062;2022-08-21T09:01:47;98040.66;;;23.88;64.63
53340;BME280;46212;50.258;19.062;2022-08-21T09:04:12;98038.81;;;23.98;63.71
53340;BME280;46212;50.258;19.062;2022-08-21T09:06:43;98043.13;;;23.84;63.22
53340;BME280;46212;50.258;19.062;2022-08-21T09:16:59;98035.06;;;24.11;63.27
53340;BME280;46212;50.258;19.062;2022-08-21T09:22:10;98038.69;;;24.49;62.35
53340;BME280;46212;50.258;19.062;2022-08-21T09:24:47;98042.66;;;24.76;61.01
53340;BME280;46212;50.258;19.062;2022-08-21T09:27:17;98043.78;;;24.89;60.72
53340;BME280;46212;50.258;19.062;2022-08-21T09:29:47;98043.59;;;24.87;61.29
53340;BME280;46212;50.258;19.062;2022-08-21T09:32:23;98046.91;;;25.23;59.61
53340;BME280;46212;50.258;19.062;2022-08-21T09:37:20;98050.88;;;25.20;58.20
53340;BME280;46212;50.258;19.062;2022-08-21T09:39:45;98041.09;;;25.13;58.90
53340;BME280;46212;50.258;19.062;2022-08-21T09:42:11;98052.56;;;25.15;59.71
53340;BME280;46212;50.258;19.062;2022-08-21T09:44:39;98041.72;;;24.89;60.25
53340;BME280;46212;50.258;19.062;2022-08-21T09:47:08;98047.53;;;24.99;60.44
53340;BME280;46212;50.258;19.062;2022-08-21T09:49:35;98045.75;;;25.26;59.17
53340;BME280;46212;50.258;19.062;2022-08-21T09:52:02;98047.78;;;25.41;58.32
53340;BME280;46212;50.258;19.062;2022-08-21T09:54:30;98039.09;;;25.54;57.96
53340;BME280;46212;50.258;19.062;2022-08-21T09:57:00;98035.91;;;25.89;57.15
53340;BME280;46212;50.258;19.062;2022-08-21T09:59:45;98048.38;;;26.19;57.01
53340;BME280;46212;50.258;19.062;2022-08-21T10:04:42;98037.00;;;26.26;57.87
53340;BME280;46212;50.258;19.062;2022-08-21T10:07:14;98049.06;;;26.27;57.42
53340;BME280;46212;50.258;19.062;2022-08-21T10:09:40;98054.81;;;25.79;59.38
53340;BME280;46212;50.258;19.062;2022-08-21T10:12:16;98060.72;;;24.89;60.09
53340;BME280;46212;50.258;19.062;2022-08-21T10:15:06;98067.50;;;24.63;62.25
53340;BME280;46212;50.258;19.062;2022-08-21T10:17:34;98069.13;;;25.19;60.14
53340;BME280;46212;50.258;19.062;2022-08-21T10:20:14;98070.50;;;24.72;61.58
53340;BME280;46212;50.258;19.062;2022-08-21T10:25:21;98061.66;;;24.91;59.87
53340;BME280;46212;50.258;19.062;2022-08-21T10:27:53;98064.84;;;24.72;61.35
53340;BME280;46212;50.258;19.062;2022-08-21T10:30:26;98062.41;;;24.69;61.29
53340;BME280;46212;50.258;19.062;2022-08-21T10:40:39;98063.06;;;24.01;64.82
53340;BME280;46212;50.258;19.062;2022-08-21T10:43:15;98058.38;;;23.96;64.97
53340;BME280;46212;50.258;19.062;2022-08-21T10:48:13;98064.84;;;24.27;64.77
53340;BME280;46212;50.258;19.062;2022-08-21T10:50:51;98061.78;;;24.10;65.66
53340;BME280;46212;50.258;19.062;2022-08-21T10:56:05;98067.91;;;24.82;62.59
53340;BME280;46212;50.258;19.062;2022-08-21T10:58:37;98058.06;;;24.75;62.55
53340;BME280;46212;50.258;19.062;2022-08-21T11:01:28;98061.47;;;24.44;63.87
53340;BME280;46212;50.258;19.062;2022-08-21T11:04:02;98072.88;;;24.08;65.43
53340;BME280;46212;50.258;19.062;2022-08-21T11:06:31;98072.16;;;23.64;67.44
53340;BME280;46212;50.258;19.062;2022-08-21T11:09:16;98058.13;;;23.79;66.44
53340;BME280;46212;50.258;19.062;2022-08-21T11:11:52;98067.47;;;24.17;65.12
53340;BME280;46212;50.258;19.062;2022-08-21T11:17:00;98072.66;;;23.98;66.89
53340;BME280;46212;50.258;19.062;2022-08-21T11:22:04;98063.72;;;24.22;65.32
53340;BME280;46212;50.258;19.062;2022-08-21T11:24:38;98071.06;;;24.33;65.50
53340;BME280;46212;50.258;19.062;2022-08-21T11:29:34;98075.50;;;24.06;65.77
53340;BME280;46212;50.258;19.062;2022-08-21T11:34:51;98066.03;;;23.88;66.01
53340;BME280;46212;50.258;19.062;2022-08-21T11:37:37;98069.66;;;23.96;65.28
53340;BME280;46212;50.258;19.062;2022-08-21T11:42:38;98075.66;;;23.93;65.79
53340;BME280;46212;50.258;19.062;2022-08-21T11:45:22;98070.50;;;23.33;67.55
53340;BME280;46212;50.258;19.062;2022-08-21T11:50:30;98073.16;;;23.81;66.32
53340;BME280;46212;50.258;19.062;2022-08-21T11:56:23;98068.25;;;24.63;63.34
53340;BME280;46212;50.258;19.062;2022-08-21T11:58:47;98065.22;;;24.61;63.27
53340;BME280;46212;50.258;19.062;2022-08-21T12:01:19;98066.34;;;24.81;62.48
53340;BME280;46212;50.258;19.062;2022-08-21T12:03:53;98053.19;;;24.91;63.10
53340;BME280;46212;50.258;19.062;2022-08-21T12:06:28;98059.22;;;24.50;63.84
53340;BME280;46212;50.258;19.062;2022-08-21T12:08:58;98061.56;;;23.93;65.94
53340;BME280;46212;50.258;19.062;2022-08-21T12:11:24;98055.81;;;24.28;64.73
53340;BME280;46212;50.258;19.062;2022-08-21T12:13:58;98068.25;;;24.41;64.13
53340;BME280;46212;50.258;19.062;2022-08-21T12:16:37;98058.81;;;24.23;64.74
53340;BME280;46212;50.258;19.062;2022-08-21T12:21:28;98055.25;;;24.22;66.07
53340;BME280;46212;50.258;19.062;2022-08-21T12:24:01;98051.34;;;23.74;66.81
53340;BME280;46212;50.258;19.062;2022-08-21T12:29:13;98062.69;;;23.97;66.31
53340;BME280;46212;50.258;19.062;2022-08-21T12:31:56;98058.56;;;23.98;66.19
53340;BME280;46212;50.258;19.062;2022-08-21T12:34:31;98061.19;;;23.96;66.82
53340;BME280;46212;50.258;19.062;2022-08-21T12:37:03;98065.34;;;24.03;66.25
53340;BME280;46212;50.258;19.062;2022-08-21T12:39:29;98055.50;;;23.89;66.78
53340;BME280;46212;50.258;19.062;2022-08-21T12:42:10;98061.00;;;24.02;65.65
53340;BME280;46212;50.258;19.062;2022-08-21T12:44:42;98062.19;;;24.14;65.08
53340;BME280;46212;50.258;19.062;2022-08-21T12:47:14;98059.75;;;24.33;63.92
53340;BME280;46212;50.258;19.062;2022-08-21T12:49:51;98056.94;;;24.78;62.76
53340;BME280;46212;50.258;19.062;2022-08-21T12:52:23;98050.91;;;25.05;62.40
53340;BME280;46212;50.258;19.062;2022-08-21T12:54:48;98064.41;;;25.21;61.73
53340;BME280;46212;50.258;19.062;2022-08-21T12:59:45;98061.34;;;23.83;66.47
53340;BME280;46212;50.258;19.062;2022-08-21T13:02:18;98066.31;;;23.54;68.04
53340;BME280;46212;50.258;19.062;2022-08-21T13:04:45;98075.00;;;23.00;70.56
53340;BME280;46212;50.258;19.062;2022-08-21T13:07:13;98071.31;;;22.84;71.25
53340;BME280;46212;50.258;19.062;2022-08-21T13:09:50;98079.31;;;22.72;71.84
53340;BME280;46212;50.258;19.062;2022-08-21T13:12:17;98084.50;;;22.27;73.96
53340;BME280;46212;50.258;19.062;2022-08-21T13:14:45;98076.53;;;21.97;75.15
53340;BME280;46212;50.258;19.062;2022-08-21T13:17:12;98077.81;;;21.62;76.70
53340;BME280;46212;50.258;19.062;2022-08-21T13:19:38;98084.00;;;21.35;78.67
53340;BME280;46212;50.258;19.062;2022-08-21T13:22:05;98090.44;;;20.90;80.99
53340;BME280;46212;50.258;19.062;2022-08-21T13:24:37;98078.88;;;20.54;82.66
53340;BME280;46212;50.258;19.062;2022-08-21T13:27:02;98086.78;;;20.37;82.37
53340;BME280;46212;50.258;19.062;2022-08-21T13:29:32;98094.34;;;20.29;81.98
53340;BME280;46212;50.258;19.062;2022-08-21T13:32:00;98090.41;;;19.44;86.62
53340;BME280;46212;50.258;19.062;2022-08-21T13:34:29;98087.81;;;19.28;87.64
53340;BME280;46212;50.258;19.062;2022-08-21T13:37:00;98098.81;;;19.44;86.67
53340;BME280;46212;50.258;19.062;2022-08-21T13:39:26;98099.69;;;19.09;89.31
53340;BME280;46212;50.258;19.062;2022-08-21T13:41:54;98094.47;;;19.00;89.40
53340;BME280;46212;50.258;19.062;2022-08-21T13:46:46;98088.78;;;19.06;89.05
53340;BME280;46212;50.258;19.062;2022-08-21T13:49:13;98097.09;;;18.93;90.45
53340;BME280;46212;50.258;19.062;2022-08-21T13:51:39;98094.19;;;18.80;91.39
53340;BME280;46212;50.258;19.062;2022-08-21T13:54:25;98097.03;;;18.98;90.25
53340;BME280;46212;50.258;19.062;2022-08-21T13:56:51;98108.97;;;18.75;91.30